createdAt,value
2022-11-20T00:00:46.454Z,76.74
2022-11-20T00:01:53.043Z,76.99
2022-11-20T00:02:54.796Z,76.95
2022-11-20T00:03:58.942Z,77.05
2022-11-20T00:05:00.733Z,76.91
2022-11-20T00:06:07.385Z,76.84
2022-11-20T00:07:09.201Z,77.06
2022-11-20T00:08:11.482Z,77.15
2022-11-20T00:09:13.389Z,76.99
2022-11-20T00:10:15.262Z,76.71
2022-11-20T00:11:20.644Z,76.56
2022-11-20T00:12:22.357Z,76.59
2022-11-20T00:13:24.333Z,76.73
2022-11-20T00:14:26.093Z,76.88
2022-11-20T00:15:27.829Z,76.78
2022-11-20T00:16:33.053Z,77.02
2022-11-20T00:17:34.832Z,76.88
2022-11-20T00:18:37.141Z,76.90
2022-11-20T00:19:38.876Z,77.04
2022-11-20T00:20:40.649Z,77.12
2022-11-20T00:21:42.508Z,77.11
2022-11-20T00:22:44.290Z,76.92
2022-11-20T00:23:46.683Z,77.04
2022-11-20T00:24:48.471Z,76.96
2022-11-20T00:25:50.212Z,77.04
2022-11-20T00:26:51.966Z,77.44
2022-11-20T00:27:53.730Z,77.63
2022-11-20T00:29:02.287Z,77.59
2022-11-20T00:30:05.755Z,77.62
2022-11-20T00:31:13.811Z,77.95
2022-11-20T00:32:15.954Z,77.73
2022-11-20T00:33:17.707Z,77.71
2022-11-20T00:34:19.640Z,77.68
2022-11-20T00:35:21.613Z,77.93
2022-11-20T00:36:26.759Z,77.90
2022-11-20T00:37:28.571Z,77.74
2022-11-20T00:38:31.216Z,77.62
2022-11-20T00:39:33.140Z,77.55
2022-11-20T00:40:35.075Z,77.69
2022-11-20T00:41:36.875Z,77.99
2022-11-20T00:42:43.188Z,77.86
2022-11-20T00:43:45.137Z,78.13
2022-11-20T00:44:46.877Z,78.19
2022-11-20T00:45:48.695Z,78.40
2022-11-20T00:46:50.466Z,78.43
2022-11-20T00:47:52.244Z,78.09
2022-11-20T00:48:54.612Z,78.04
2022-11-20T00:49:56.345Z,77.99
2022-11-20T00:50:58.840Z,78.01
2022-11-20T00:52:00.647Z,77.97
2022-11-20T00:53:02.357Z,77.86
2022-11-20T00:54:04.380Z,77.82
2022-11-20T00:55:06.892Z,77.94
2022-11-20T00:56:13.558Z,78.05
2022-11-20T00:57:15.309Z,77.90
2022-11-20T00:58:17.037Z,77.43
2022-11-20T00:59:18.803Z,77.31
2022-11-20T01:00:20.679Z,77.25
2022-11-20T01:01:26.081Z,77.17
2022-11-20T01:02:27.996Z,77.11
2022-11-20T01:03:35.593Z,77.05
2022-11-20T01:04:37.754Z,77.23
2022-11-20T01:05:39.474Z,77.08
2022-11-20T01:06:41.579Z,77.30
2022-11-20T01:07:43.341Z,77.29
2022-11-20T01:08:46.348Z,77.33
2022-11-20T01:09:48.060Z,77.30
2022-11-20T01:10:49.775Z,77.12
2022-11-20T01:11:51.567Z,77.21
2022-11-20T01:13:13.270Z,77.27
2022-11-20T01:14:19.589Z,77.14
2022-11-20T01:15:21.329Z,77.03
2022-11-20T01:16:24.544Z,77.23
2022-11-20T01:17:26.305Z,77.25
2022-11-20T01:18:28.055Z,77.18
2022-11-20T01:19:29.755Z,77.39
2022-11-20T01:20:34.772Z,77.29
2022-11-20T01:21:39.553Z,77.21
2022-11-20T01:22:41.278Z,77.21
2022-11-20T01:23:45.019Z,77.10
2022-11-20T01:24:46.808Z,77.02
2022-11-20T01:25:48.626Z,77.12
2022-11-20T01:26:52.308Z,77.20
2022-11-20T01:27:54.279Z,77.11
2022-11-20T01:28:58.159Z,76.97
2022-11-20T01:30:01.272Z,77.16
2022-11-20T01:31:31.554Z,77.18
2022-11-20T01:32:33.306Z,77.32
2022-11-20T01:33:35.034Z,77.50
2022-11-20T01:34:36.799Z,77.41
2022-11-20T01:35:39.090Z,77.72
2022-11-20T01:36:43.526Z,78.01
2022-11-20T01:37:45.278Z,77.77
2022-11-20T01:38:47.280Z,78.26
2022-11-20T01:39:48.990Z,78.34
2022-11-20T01:40:57.326Z,78.43
2022-11-20T01:42:17.812Z,78.42
2022-11-20T01:43:24.170Z,78.48
2022-11-20T01:45:05.101Z,78.44
2022-11-20T01:46:16.438Z,78.71
2022-11-20T01:47:39.520Z,78.79
2022-11-20T01:48:53.134Z,78.77
2022-11-20T01:50:17.628Z,79.12
2022-11-20T01:51:35.028Z,79.06
2022-11-20T01:52:49.558Z,79.03
2022-11-20T01:53:55.319Z,79.04
2022-11-20T01:55:29.545Z,79.16
2022-11-20T01:56:37.932Z,79.20
2022-11-20T01:57:40.945Z,79.24
2022-11-20T01:58:51.402Z,79.25
2022-11-20T02:00:10.427Z,79.26
2022-11-20T02:01:18.792Z,79.24
2022-11-20T02:02:22.487Z,79.34
2022-11-20T02:03:24.914Z,79.40
2022-11-20T02:04:26.925Z,79.15
2022-11-20T02:05:46.908Z,79.29
2022-11-20T02:06:54.678Z,79.41
2022-11-20T02:08:00.029Z,79.21
2022-11-20T02:09:01.789Z,79.29
2022-11-20T02:10:04.515Z,79.00
2022-11-20T02:11:06.914Z,78.86
2022-11-20T02:12:29.009Z,79.21
2022-11-20T02:13:46.164Z,78.79
2022-11-20T02:14:47.927Z,78.62
2022-11-20T02:15:50.656Z,78.78
2022-11-20T02:16:53.137Z,78.91
2022-11-20T02:17:55.285Z,78.71
2022-11-20T02:19:01.308Z,78.41
2022-11-20T02:20:04.044Z,78.66
2022-11-20T02:21:25.433Z,78.87
2022-11-20T02:22:38.746Z,78.57
2022-11-20T02:24:15.364Z,78.66
2022-11-20T02:25:19.468Z,78.58
2022-11-20T02:26:24.122Z,78.68
2022-11-20T02:27:27.628Z,78.84
2022-11-20T02:28:29.605Z,78.80
2022-11-20T02:29:56.609Z,78.93
2022-11-20T02:30:58.424Z,79.16
2022-11-20T02:32:02.425Z,79.41
2022-11-20T02:33:04.146Z,79.33
2022-11-20T02:34:08.264Z,79.17
2022-11-20T02:35:18.818Z,79.30
2022-11-20T02:36:20.756Z,79.36
2022-11-20T02:37:23.944Z,79.50
2022-11-20T02:38:25.819Z,79.36
2022-11-20T02:39:29.608Z,79.38
2022-11-20T02:40:33.456Z,79.36
2022-11-20T02:41:38.600Z,79.32
2022-11-20T02:42:41.121Z,79.44
2022-11-20T02:43:42.872Z,79.60
2022-11-20T02:44:45.685Z,79.62
2022-11-20T02:45:47.376Z,79.53
2022-11-20T02:46:49.106Z,79.72
2022-11-20T02:47:51.976Z,79.82
2022-11-20T02:48:53.863Z,79.65
2022-11-20T02:49:55.594Z,79.64
2022-11-20T02:50:57.490Z,79.69
2022-11-20T02:51:59.587Z,79.82
2022-11-20T02:53:01.444Z,79.73
2022-11-20T02:54:03.949Z,79.84
2022-11-20T02:55:06.274Z,79.47
2022-11-20T02:56:08.393Z,79.58
2022-11-20T02:57:10.116Z,79.54
2022-11-20T02:58:11.987Z,79.58
2022-11-20T02:59:13.712Z,79.52
2022-11-20T03:00:15.680Z,79.56
2022-11-20T03:01:17.483Z,79.67
2022-11-20T03:02:19.241Z,79.73
2022-11-20T03:03:21.062Z,79.86
2022-11-20T03:04:23.228Z,79.84
2022-11-20T03:05:25.139Z,80.12
2022-11-20T03:06:27.069Z,80.00
2022-11-20T03:07:28.883Z,80.23
2022-11-20T03:08:30.891Z,80.34
2022-11-20T03:09:32.717Z,80.27
2022-11-20T03:10:34.467Z,80.40
2022-11-20T03:11:36.473Z,80.59
2022-11-20T03:12:38.257Z,80.62
2022-11-20T03:13:40.101Z,80.96
2022-11-20T03:14:50.189Z,80.87
2022-11-20T03:15:54.575Z,80.75
2022-11-20T03:16:57.096Z,80.67
2022-11-20T03:17:59.115Z,80.76
2022-11-20T03:19:04.068Z,80.72
2022-11-20T03:20:07.025Z,80.62
2022-11-20T03:21:11.085Z,80.87
2022-11-20T03:22:12.802Z,80.91
2022-11-20T03:23:14.516Z,81.16
2022-11-20T03:24:16.297Z,81.17
2022-11-20T03:25:18.262Z,81.13
2022-11-20T03:26:23.453Z,81.03
2022-11-20T03:27:25.394Z,80.85
2022-11-20T03:28:27.100Z,80.73
2022-11-20T03:29:28.814Z,80.80
2022-11-20T03:30:31.094Z,81.02
2022-11-20T03:31:41.295Z,80.89
2022-11-20T03:32:43.703Z,80.72
2022-11-20T03:33:45.569Z,80.88
2022-11-20T03:34:47.291Z,80.99
2022-11-20T03:35:49.060Z,80.99
2022-11-20T03:36:50.786Z,80.76
2022-11-20T03:37:52.522Z,80.66
2022-11-20T03:38:56.541Z,80.96
2022-11-20T03:39:58.282Z,80.88
2022-11-20T03:41:05.321Z,80.89
2022-11-20T03:42:27.022Z,81.06
2022-11-20T03:43:29.138Z,80.95
2022-11-20T03:44:30.879Z,81.17
2022-11-20T03:45:32.626Z,81.51
2022-11-20T03:46:34.716Z,81.38
2022-11-20T03:47:36.978Z,81.63
2022-11-20T03:48:38.713Z,81.88
2022-11-20T03:49:40.423Z,81.92
2022-11-20T03:50:42.139Z,81.93
2022-11-20T03:51:43.896Z,82.15
2022-11-20T03:52:45.642Z,82.35
2022-11-20T03:53:49.090Z,82.46
2022-11-20T03:54:50.896Z,82.70
2022-11-20T03:55:52.727Z,82.79
2022-11-20T03:56:54.453Z,83.13
2022-11-20T03:57:56.323Z,83.07
2022-11-20T03:58:58.657Z,83.13
2022-11-20T04:00:00.830Z,83.40
2022-11-20T04:01:11.229Z,83.32
2022-11-20T04:02:13.010Z,83.71
2022-11-20T04:03:15.168Z,83.72
2022-11-20T04:04:16.974Z,83.90
2022-11-20T04:05:18.664Z,84.23
2022-11-20T04:06:26.837Z,84.20
2022-11-20T04:07:28.614Z,84.26
2022-11-20T04:08:31.884Z,84.16
2022-11-20T04:09:33.639Z,84.39
2022-11-20T04:10:35.453Z,84.31
2022-11-20T04:11:41.343Z,84.31
2022-11-20T04:12:43.111Z,84.34
2022-11-20T04:13:49.601Z,84.41
2022-11-20T04:14:51.365Z,84.76
2022-11-20T04:15:58.774Z,84.83
2022-11-20T04:17:00.562Z,84.82
2022-11-20T04:18:02.274Z,85.11
2022-11-20T04:19:07.248Z,85.33
2022-11-20T04:20:09.398Z,85.19
2022-11-20T04:21:12.294Z,85.33
2022-11-20T04:22:14.376Z,85.37
2022-11-20T04:23:16.079Z,85.63
2022-11-20T04:24:17.945Z,85.50
2022-11-20T04:25:19.692Z,85.51
2022-11-20T04:26:24.140Z,85.68
2022-11-20T04:27:25.920Z,85.66
2022-11-20T04:28:27.650Z,85.97
2022-11-20T04:29:29.363Z,86.20
2022-11-20T04:30:32.108Z,86.46
2022-11-20T04:31:35.613Z,86.43
2022-11-20T04:32:37.340Z,86.72
2022-11-20T04:33:40.643Z,86.87
2022-11-20T04:34:42.488Z,86.86
2022-11-20T04:35:48.944Z,86.98
2022-11-20T04:36:50.707Z,86.99
2022-11-20T04:37:53.104Z,87.24
2022-11-20T04:38:57.730Z,87.39
2022-11-20T04:39:59.499Z,87.51
2022-11-20T04:41:03.955Z,87.73
2022-11-20T04:42:24.454Z,87.64
2022-11-20T04:43:26.270Z,87.92
2022-11-20T04:44:27.978Z,88.08
2022-11-20T04:45:29.750Z,88.18
2022-11-20T04:46:42.984Z,88.30
2022-11-20T04:47:44.715Z,88.70
2022-11-20T04:48:46.835Z,88.80
2022-11-20T04:49:48.834Z,88.58
2022-11-20T04:50:51.274Z,88.80
2022-11-20T04:51:56.109Z,89.12
2022-11-20T04:52:57.818Z,89.15
2022-11-20T04:53:59.595Z,89.15
2022-11-20T04:55:01.347Z,89.05
2022-11-20T04:56:05.780Z,89.40
2022-11-20T04:57:12.950Z,89.47
2022-11-20T04:58:17.006Z,89.48
2022-11-20T04:59:18.879Z,89.56
2022-11-20T05:00:21.073Z,89.81
2022-11-20T05:01:25.359Z,89.93
2022-11-20T05:02:27.236Z,89.99
2022-11-20T05:03:29.115Z,90.06
2022-11-20T05:04:30.858Z,90.35
2022-11-20T05:05:35.035Z,90.44
2022-11-20T05:06:36.739Z,90.81
2022-11-20T05:07:38.525Z,91.07
2022-11-20T05:08:41.065Z,91.22
2022-11-20T05:09:42.797Z,91.34
2022-11-20T05:10:44.789Z,91.53
2022-11-20T05:11:50.407Z,91.47
2022-11-20T05:12:54.438Z,91.53
2022-11-20T05:13:56.410Z,91.48
2022-11-20T05:14:58.202Z,91.81
2022-11-20T05:16:05.914Z,91.97
2022-11-20T05:17:11.269Z,92.26
2022-11-20T05:18:13.060Z,92.25
2022-11-20T05:19:14.820Z,92.30
2022-11-20T05:20:17.037Z,92.29
2022-11-20T05:21:19.303Z,92.40
2022-11-20T05:22:21.101Z,92.37
2022-11-20T05:23:23.094Z,92.46
2022-11-20T05:24:24.852Z,92.72
2022-11-20T05:25:26.760Z,92.83
2022-11-20T05:26:28.800Z,92.90
2022-11-20T05:27:30.534Z,93.06
2022-11-20T05:28:33.450Z,93.28
2022-11-20T05:29:35.227Z,93.38
2022-11-20T05:30:36.927Z,93.51
2022-11-20T05:31:42.385Z,93.72
2022-11-20T05:32:44.116Z,93.67
2022-11-20T05:33:47.071Z,93.85
2022-11-20T05:34:48.787Z,93.88
2022-11-20T05:35:50.609Z,94.02
2022-11-20T05:36:52.418Z,94.23
2022-11-20T05:37:54.143Z,94.31
2022-11-20T05:39:01.204Z,94.44
2022-11-20T05:40:04.188Z,94.39
2022-11-20T05:41:08.800Z,94.59
2022-11-20T05:42:29.659Z,94.62
2022-11-20T05:43:34.821Z,94.78
2022-11-20T05:44:36.651Z,94.64
2022-11-20T05:45:38.448Z,94.88
2022-11-20T05:46:40.225Z,94.93
2022-11-20T05:47:42.112Z,95.06
2022-11-20T05:48:45.238Z,95.12
2022-11-20T05:49:47.086Z,95.24
2022-11-20T05:50:49.310Z,95.33
2022-11-20T05:51:51.026Z,95.28
2022-11-20T05:52:53.035Z,95.13
2022-11-20T05:53:58.434Z,95.06
2022-11-20T05:55:00.245Z,95.06
2022-11-20T05:56:06.064Z,95.08
2022-11-20T05:57:07.801Z,95.11
2022-11-20T05:58:09.816Z,95.17
2022-11-20T05:59:11.538Z,95.30
2022-11-20T06:00:14.143Z,95.24
2022-11-20T06:01:22.431Z,95.14
2022-11-20T06:02:24.266Z,95.22
2022-11-20T06:03:26.045Z,95.36
2022-11-20T06:04:27.960Z,95.41
2022-11-20T06:05:29.749Z,95.39
2022-11-20T06:06:31.550Z,95.44
2022-11-20T06:07:33.365Z,95.57
2022-11-20T06:08:35.512Z,95.54
2022-11-20T06:09:37.246Z,95.67
2022-11-20T06:10:39.061Z,95.73
2022-11-20T06:11:40.899Z,95.85
2022-11-20T06:12:42.658Z,95.78
2022-11-20T06:13:45.064Z,95.75
2022-11-20T06:14:46.805Z,95.95
2022-11-20T06:15:53.024Z,95.91
2022-11-20T06:16:54.786Z,95.99
2022-11-20T06:17:56.686Z,96.01
2022-11-20T06:18:58.883Z,96.08
2022-11-20T06:20:00.745Z,95.92
2022-11-20T06:21:06.745Z,96.01
2022-11-20T06:22:08.527Z,95.97
2022-11-20T06:23:10.327Z,96.20
2022-11-20T06:24:12.400Z,96.19
2022-11-20T06:25:14.940Z,96.17
2022-11-20T06:26:22.310Z,96.44
2022-11-20T06:27:24.122Z,96.30
2022-11-20T06:28:26.078Z,96.27
2022-11-20T06:29:32.702Z,95.94
2022-11-20T06:30:36.769Z,96.26
2022-11-20T06:31:38.863Z,96.31
2022-11-20T06:32:40.682Z,96.22
2022-11-20T06:33:43.802Z,96.31
2022-11-20T06:34:45.505Z,96.43
2022-11-20T06:35:47.248Z,96.55
2022-11-20T06:36:48.977Z,96.66
2022-11-20T06:37:50.741Z,96.59
2022-11-20T06:38:52.734Z,96.56
2022-11-20T06:39:54.494Z,96.57
2022-11-20T06:40:57.195Z,96.55
2022-11-20T06:41:59.444Z,96.31
2022-11-20T06:43:01.265Z,96.32
2022-11-20T06:44:05.474Z,96.31
2022-11-20T06:45:07.830Z,96.05
2022-11-20T06:46:11.778Z,96.10
2022-11-20T06:47:13.604Z,96.28
2022-11-20T06:48:15.370Z,96.31
2022-11-20T06:49:17.292Z,96.04
2022-11-20T06:50:19.072Z,96.04
2022-11-20T06:51:20.915Z,95.98
2022-11-20T06:52:22.681Z,95.93
2022-11-20T06:53:25.565Z,95.92
2022-11-20T06:54:27.295Z,96.03
2022-11-20T06:55:29.221Z,96.06
2022-11-20T06:56:30.943Z,96.25
2022-11-20T06:57:32.833Z,96.13
2022-11-20T06:58:36.317Z,96.23
2022-11-20T06:59:38.059Z,96.29
2022-11-20T07:00:40.135Z,96.00
2022-11-20T07:01:42.274Z,96.10
2022-11-20T07:02:43.999Z,96.13
2022-11-20T07:03:48.928Z,96.20
2022-11-20T07:04:53.130Z,96.09
2022-11-20T07:05:58.971Z,96.07
2022-11-20T07:07:00.755Z,96.14
2022-11-20T07:08:04.291Z,96.31
2022-11-20T07:09:11.380Z,96.43
2022-11-20T07:10:14.579Z,96.18
2022-11-20T07:11:16.318Z,96.05
2022-11-20T07:12:18.146Z,95.90
2022-11-20T07:13:19.909Z,95.91
2022-11-20T07:14:21.663Z,96.02
2022-11-20T07:15:26.100Z,96.18
2022-11-20T07:16:28.187Z,95.95
2022-11-20T07:17:29.965Z,95.85
2022-11-20T07:18:31.815Z,95.84
2022-11-20T07:19:33.571Z,95.87
2022-11-20T07:20:35.347Z,95.32
2022-11-20T07:21:37.130Z,94.82
2022-11-20T07:22:38.893Z,94.46
2022-11-20T07:23:40.649Z,94.48
2022-11-20T07:24:45.973Z,94.66
2022-11-20T07:25:48.180Z,94.36
2022-11-20T07:26:50.205Z,94.57
2022-11-20T07:27:52.299Z,94.33
2022-11-20T07:28:53.990Z,94.19
2022-11-20T07:29:55.790Z,94.37
2022-11-20T07:30:57.601Z,93.97
2022-11-20T07:31:59.335Z,93.59
2022-11-20T07:33:01.421Z,93.28
2022-11-20T07:34:03.372Z,93.12
2022-11-20T07:35:05.494Z,93.02
2022-11-20T07:36:07.588Z,92.97
2022-11-20T07:37:10.600Z,93.14
2022-11-20T07:38:12.568Z,92.84
2022-11-20T07:39:14.287Z,91.98
2022-11-20T07:40:17.224Z,91.78
2022-11-20T07:41:19.196Z,91.65
2022-11-20T07:42:20.945Z,91.54
2022-11-20T07:43:26.252Z,91.22
2022-11-20T07:44:28.134Z,90.94
2022-11-20T07:45:29.841Z,90.71
2022-11-20T07:46:31.810Z,90.63
2022-11-20T07:47:37.506Z,90.59
2022-11-20T07:48:39.246Z,90.40
2022-11-20T07:49:40.952Z,89.95
2022-11-20T07:50:42.699Z,89.55
2022-11-20T07:51:44.549Z,89.37
2022-11-20T07:52:46.620Z,88.94
2022-11-20T07:53:48.357Z,89.22
2022-11-20T07:54:50.090Z,89.29
2022-11-20T07:55:53.476Z,89.00
2022-11-20T07:56:55.927Z,88.75
2022-11-20T07:57:59.479Z,88.80
2022-11-20T07:59:01.303Z,88.52
2022-11-20T08:00:05.570Z,87.94
2022-11-20T08:01:14.028Z,87.47
2022-11-20T08:02:15.816Z,87.07
2022-11-20T08:03:24.069Z,87.27
2022-11-20T08:04:26.526Z,87.38
2022-11-20T08:05:28.256Z,86.98
2022-11-20T08:06:29.990Z,86.56
2022-11-20T08:07:36.937Z,86.41
2022-11-20T08:08:43.071Z,86.65
2022-11-20T08:09:45.031Z,86.73
2022-11-20T08:10:46.790Z,86.60
2022-11-20T08:12:07.115Z,86.40
2022-11-20T08:13:28.517Z,85.00
2022-11-20T08:14:30.362Z,84.68
2022-11-20T08:15:32.879Z,84.02
2022-11-20T08:16:34.653Z,83.86
2022-11-20T08:17:36.463Z,84.23
2022-11-20T08:18:38.211Z,83.99
2022-11-20T08:19:40.007Z,83.94
2022-11-20T08:20:41.779Z,83.14
2022-11-20T08:21:44.425Z,82.40
2022-11-20T08:22:46.425Z,81.78
2022-11-20T08:23:48.168Z,81.70
2022-11-20T08:24:50.125Z,81.34
2022-11-20T08:25:52.422Z,81.80
2022-11-20T08:26:55.111Z,82.05
2022-11-20T08:28:11.568Z,82.41
2022-11-20T08:29:20.642Z,82.34
2022-11-20T08:30:22.710Z,82.25
2022-11-20T08:31:26.740Z,82.30
2022-11-20T08:32:28.479Z,82.23
2022-11-20T08:33:33.991Z,81.73
2022-11-20T08:34:35.915Z,81.43
2022-11-20T08:35:38.961Z,81.24
2022-11-20T08:36:40.702Z,81.04
2022-11-20T08:37:42.557Z,80.37
2022-11-20T08:38:48.812Z,80.00
2022-11-20T08:39:50.618Z,80.30
2022-11-20T08:41:11.004Z,79.99
2022-11-20T08:42:12.716Z,79.83
2022-11-20T08:43:14.410Z,79.85
2022-11-20T08:44:16.155Z,79.73
2022-11-20T08:45:19.765Z,79.44
2022-11-20T08:46:21.893Z,79.32
2022-11-20T08:47:23.659Z,79.78
2022-11-20T08:48:25.390Z,80.06
2022-11-20T08:49:27.143Z,80.12
2022-11-20T08:50:29.096Z,80.08
2022-11-20T08:51:31.297Z,80.07
2022-11-20T08:52:36.986Z,80.11
2022-11-20T08:53:42.769Z,79.96
2022-11-20T08:54:44.502Z,79.54
2022-11-20T08:55:46.402Z,79.25
2022-11-20T08:56:48.321Z,79.41
2022-11-20T08:57:51.238Z,79.35
2022-11-20T09:00:16.154Z,78.77
2022-11-20T09:01:18.228Z,78.83
2022-11-20T09:02:20.019Z,78.56
2022-11-20T09:03:22.155Z,78.30
2022-11-20T09:04:23.901Z,78.22
2022-11-20T09:05:25.964Z,77.89
2022-11-20T09:06:28.143Z,77.93
2022-11-20T09:07:31.402Z,77.66
2022-11-20T09:08:33.980Z,77.39
2022-11-20T09:09:35.777Z,76.95
2022-11-20T09:10:40.549Z,76.78
2022-11-20T09:11:42.334Z,76.72
2022-11-20T09:12:44.467Z,76.57
2022-11-20T09:13:46.386Z,76.79
2022-11-20T09:14:53.736Z,76.73
2022-11-20T09:15:58.695Z,76.35
2022-11-20T09:17:01.035Z,75.99
2022-11-20T09:18:05.722Z,75.57
2022-11-20T09:19:40.786Z,75.37
2022-11-20T09:20:31.564Z,74.86
2022-11-20T09:21:33.296Z,74.75
2022-11-20T09:22:35.046Z,74.37
2022-11-20T09:23:38.208Z,74.05
2022-11-20T09:24:39.936Z,73.72
2022-11-20T09:25:42.315Z,73.43
2022-11-20T09:26:44.145Z,72.99
2022-11-20T09:27:47.124Z,73.14
2022-11-20T09:28:51.868Z,73.01
2022-11-20T09:29:55.978Z,73.30
2022-11-20T09:30:57.760Z,73.10
2022-11-20T09:31:59.485Z,73.09
2022-11-20T09:33:01.339Z,72.74
2022-11-20T09:34:03.299Z,72.19
2022-11-20T09:35:05.567Z,72.48
2022-11-20T09:36:07.561Z,72.95
2022-11-20T09:37:09.329Z,72.85
2022-11-20T09:38:11.821Z,72.33
2022-11-20T09:39:13.525Z,72.24
2022-11-20T09:40:22.644Z,72.16
2022-11-20T09:41:47.310Z,72.03
2022-11-20T09:42:59.686Z,72.40
2022-11-20T09:44:34.722Z,72.49
2022-11-20T09:45:51.479Z,72.81
2022-11-20T09:47:02.240Z,72.59
2022-11-20T09:48:48.337Z,72.15
2022-11-20T09:50:20.995Z,71.61
2022-11-20T09:51:27.151Z,71.10
2022-11-20T09:53:08.017Z,71.17
2022-11-20T09:54:23.264Z,70.61
2022-11-20T09:55:25.652Z,70.32
2022-11-20T09:56:29.175Z,69.57
2022-11-20T09:57:38.870Z,69.27
2022-11-20T09:58:48.561Z,69.02
2022-11-20T10:00:00.434Z,68.56
2022-11-20T10:01:17.968Z,67.96
2022-11-20T10:02:41.114Z,67.62
2022-11-20T10:03:52.041Z,67.59
2022-11-20T10:05:12.109Z,68.04
2022-11-20T10:06:19.201Z,67.21
2022-11-20T10:07:32.633Z,67.38
2022-11-20T10:08:52.863Z,67.06
2022-11-20T10:09:57.526Z,66.42
2022-11-20T10:11:39.089Z,66.14
2022-11-20T10:13:13.416Z,65.88
2022-11-20T10:14:36.729Z,65.64
2022-11-20T10:15:50.399Z,65.87
2022-11-20T10:17:01.408Z,65.98
2022-11-20T10:18:31.738Z,65.86
2022-11-20T10:19:33.371Z,65.80
2022-11-20T10:21:02.302Z,65.42
2022-11-20T10:22:25.113Z,64.44
2022-11-20T10:23:33.093Z,64.81
2022-11-20T10:24:46.955Z,64.30
2022-11-20T10:26:03.811Z,64.41
2022-11-20T10:27:36.625Z,64.87
2022-11-20T10:29:05.993Z,64.42
2022-11-20T10:30:14.493Z,64.36
2022-11-20T10:31:48.129Z,63.47
2022-11-20T10:32:56.437Z,63.42
2022-11-20T10:34:15.958Z,63.94
2022-11-20T10:35:27.098Z,64.50
2022-11-20T10:36:39.016Z,64.16
2022-11-20T10:37:48.579Z,63.42
2022-11-20T10:39:00.396Z,62.81
2022-11-20T10:40:42.866Z,62.90
2022-11-20T10:41:52.154Z,62.96
2022-11-20T10:42:59.933Z,62.37
2022-11-20T10:44:49.378Z,62.54
2022-11-20T10:46:11.638Z,62.44
2022-11-20T10:47:17.203Z,61.83
2022-11-20T10:48:26.153Z,62.12
2022-11-20T10:49:28.938Z,63.43
2022-11-20T10:50:31.923Z,63.52
2022-11-20T10:51:59.338Z,63.07
2022-11-20T10:53:19.146Z,62.62
2022-11-20T10:54:55.374Z,63.03
2022-11-20T10:56:30.714Z,61.71
2022-11-20T10:58:02.962Z,60.36
2022-11-20T10:59:32.889Z,59.33
2022-11-20T11:00:35.118Z,58.65
2022-11-20T11:01:43.355Z,58.86
2022-11-20T11:02:56.019Z,59.37
2022-11-20T11:03:59.531Z,60.10
2022-11-20T11:05:14.690Z,60.25
2022-11-20T11:06:40.979Z,59.71
2022-11-20T11:07:45.159Z,59.69
2022-11-20T11:08:51.470Z,59.02
2022-11-20T11:09:55.743Z,59.14
2022-11-20T11:11:02.581Z,59.26
2022-11-20T11:12:09.862Z,58.71
2022-11-20T11:13:26.815Z,57.80
2022-11-20T11:14:28.646Z,57.74
2022-11-20T11:15:39.862Z,57.32
2022-11-20T11:16:53.853Z,57.30
2022-11-20T11:17:56.739Z,57.90
2022-11-20T11:19:12.599Z,57.34
2022-11-20T11:20:23.392Z,58.15
2022-11-20T11:21:27.220Z,57.93
2022-11-20T11:22:35.038Z,57.98
2022-11-20T11:23:43.029Z,57.48
2022-11-20T11:24:54.033Z,57.57
2022-11-20T11:26:01.177Z,56.95
2022-11-20T11:27:16.434Z,56.41
2022-11-20T11:28:19.037Z,56.00
2022-11-20T11:29:21.241Z,55.84
2022-11-20T11:30:26.006Z,55.88
2022-11-20T11:31:30.786Z,56.02
2022-11-20T11:32:32.592Z,56.62
2022-11-20T11:33:36.956Z,56.25
2022-11-20T11:34:38.856Z,55.82
2022-11-20T11:35:59.888Z,55.77
2022-11-20T11:37:06.321Z,54.74
2022-11-20T11:38:17.024Z,54.03
2022-11-20T11:39:22.812Z,53.82
2022-11-20T11:40:25.447Z,53.24
2022-11-20T11:41:35.821Z,53.25
2022-11-20T11:42:44.421Z,52.51
2022-11-20T11:44:15.609Z,51.30
2022-11-20T11:45:18.457Z,49.57
2022-11-20T11:46:33.496Z,49.30
2022-11-20T11:47:44.269Z,48.53
2022-11-20T11:49:16.260Z,48.24
2022-11-20T11:50:21.089Z,48.36
2022-11-20T11:51:23.345Z,47.66
2022-11-20T11:52:26.393Z,47.80
2022-11-20T11:53:30.314Z,48.44
2022-11-20T11:54:46.275Z,48.70
2022-11-20T11:55:56.711Z,48.14
2022-11-20T11:57:06.483Z,47.56
2022-11-20T11:58:18.118Z,47.34
2022-11-20T11:59:45.876Z,47.42
2022-11-20T12:01:23.116Z,46.71
2022-11-20T12:02:46.630Z,45.94
2022-11-20T12:04:41.361Z,45.37
2022-11-20T12:05:51.948Z,45.45
2022-11-20T12:07:24.227Z,45.52
2022-11-20T12:08:47.870Z,46.11
2022-11-20T12:09:55.795Z,45.21
2022-11-20T12:11:03.355Z,44.73
2022-11-20T12:12:31.162Z,45.27
2022-11-20T12:13:46.395Z,45.33
2022-11-20T12:14:51.962Z,44.90
2022-11-20T12:15:54.380Z,44.93
2022-11-20T12:16:58.572Z,44.69
2022-11-20T12:18:01.131Z,44.20
2022-11-20T12:19:03.056Z,43.86
2022-11-20T12:20:13.592Z,44.23
2022-11-20T12:21:24.532Z,45.43
2022-11-20T12:22:59.958Z,44.67
2022-11-20T12:24:25.636Z,44.45
2022-11-20T12:25:37.746Z,44.37
2022-11-20T12:27:00.937Z,44.45
2022-11-20T12:28:05.552Z,44.95
2022-11-20T12:29:30.497Z,44.85
2022-11-20T12:30:38.236Z,44.69
2022-11-20T12:31:55.246Z,44.27
2022-11-20T12:33:05.997Z,43.89
2022-11-20T12:34:32.116Z,44.14
2022-11-20T12:36:03.261Z,43.76
2022-11-20T12:37:14.009Z,43.45
2022-11-20T12:38:39.965Z,43.27
2022-11-20T12:39:51.547Z,43.11
2022-11-20T12:41:48.844Z,43.29
2022-11-20T12:43:31.086Z,44.13
2022-11-20T12:45:12.424Z,44.27
2022-11-20T12:46:32.888Z,44.37
2022-11-20T12:47:37.833Z,44.67
2022-11-20T12:48:48.128Z,44.78
2022-11-20T12:50:17.416Z,44.91
2022-11-20T12:52:03.759Z,45.10
2022-11-20T12:53:26.951Z,43.85
2022-11-20T12:55:02.840Z,43.97
2022-11-20T12:56:26.135Z,44.70
2022-11-20T12:57:55.677Z,44.68
2022-11-20T12:59:00.394Z,44.34
2022-11-20T13:00:21.504Z,44.22
2022-11-20T13:01:40.859Z,44.34
2022-11-20T13:02:58.084Z,43.85
2022-11-20T13:04:27.616Z,43.85
2022-11-20T13:06:13.324Z,43.66
2022-11-20T13:07:18.336Z,43.34
2022-11-20T13:08:34.051Z,43.19
2022-11-20T13:09:49.096Z,43.10
2022-11-20T13:10:57.166Z,43.38
2022-11-20T13:12:09.820Z,43.21
2022-11-20T13:13:32.071Z,43.09
2022-11-20T13:14:43.964Z,43.67
2022-11-20T13:16:02.608Z,43.87
2022-11-20T13:17:32.787Z,43.56
2022-11-20T13:18:42.630Z,43.31
2022-11-20T13:19:52.959Z,43.61
2022-11-20T13:20:55.115Z,43.52
2022-11-20T13:21:56.933Z,43.51
2022-11-20T13:22:59.748Z,43.59
2022-11-20T13:24:20.435Z,43.64
2022-11-20T13:25:31.515Z,43.96
2022-11-20T13:26:34.151Z,44.21
2022-11-20T13:27:35.969Z,44.38
2022-11-20T13:28:37.764Z,44.35
2022-11-20T13:29:45.801Z,44.45
2022-11-20T13:30:53.192Z,44.73
2022-11-20T13:32:15.238Z,44.83
2022-11-20T13:33:24.986Z,45.17
2022-11-20T13:34:28.502Z,45.29
2022-11-20T13:35:39.077Z,45.29
2022-11-20T13:36:52.589Z,45.44
2022-11-20T13:38:03.617Z,45.32
2022-11-20T13:39:05.578Z,45.06
2022-11-20T13:40:11.269Z,45.29
2022-11-20T13:41:29.767Z,45.34
2022-11-20T13:42:31.748Z,45.68
2022-11-20T13:43:41.968Z,45.98
2022-11-20T13:44:51.528Z,46.27
2022-11-20T13:46:11.602Z,46.63
2022-11-20T13:47:28.591Z,46.57
2022-11-20T13:48:35.111Z,46.64
2022-11-20T13:49:45.261Z,46.87
2022-11-20T13:51:01.902Z,47.32
2022-11-20T13:52:40.276Z,47.57
2022-11-20T13:54:07.265Z,48.77
2022-11-20T13:55:17.822Z,49.58
2022-11-20T13:56:54.602Z,49.94
2022-11-20T13:58:29.479Z,51.04
2022-11-20T13:59:41.249Z,51.77
2022-11-20T14:00:59.457Z,52.27
2022-11-20T14:02:02.339Z,52.87
2022-11-20T14:03:06.984Z,53.29
2022-11-20T14:04:10.438Z,53.65
2022-11-20T14:05:22.455Z,53.98
2022-11-20T14:06:34.092Z,54.27
2022-11-20T14:07:42.491Z,54.91
2022-11-20T14:08:48.585Z,55.08
2022-11-20T14:09:56.089Z,55.63
2022-11-20T14:11:18.010Z,55.96
2022-11-20T14:12:23.200Z,56.11
2022-11-20T14:13:24.946Z,56.46
2022-11-20T14:14:29.795Z,56.80
2022-11-20T14:15:34.662Z,57.10
2022-11-20T14:16:37.855Z,57.20
2022-11-20T14:17:39.641Z,57.83
2022-11-20T14:18:42.016Z,57.88
2022-11-20T14:19:48.613Z,58.21
2022-11-20T14:20:50.401Z,58.68
2022-11-20T14:22:11.095Z,58.85
2022-11-20T14:23:12.894Z,59.21
2022-11-20T14:24:22.499Z,59.46
2022-11-20T14:25:31.824Z,60.00